• Join FlightAware (Why Join?)
  • Login
  • US Flag 
08:54PM EST


 

Airport Tracker/Info


-or-


 

Live Flight TrackerFlight Track Log ✈ EJA829P ✈ 10-Jul-2013 ✈ KSFM - KHPN

Flight Track Log - Related Links

Times and Time Zones

All times are in EDT time to prevent confusion due to time zone crossing. See the EJA829P flight status page for this flight to view local times or setup timezone preferences in your user account.

Time Position Orientation Groundspeed Altitude Reporting Facility
EDT Latitude Longitude Course Direction KTS MPH feet Rate Location/Type
09:56PM 43.4375 -70.7044 301° West 156 180 8,000  Level Boston Center
09:57PM 43.4261 -70.7706 257° West 105 121 11,300 3,420 Climbing Boston Center
09:58PM 43.4042 -70.8511 249° West 199 229 14,900 3,300 Climbing Boston Center
09:59PM 43.3867 -70.9289 253° West 214 246 17,900 2,400 Climbing Boston Center
10:00PM 43.3667 -71.0092 251° West 219 252 19,800 1,020 Climbing Boston Center
10:01PM 43.3431 -71.1069 252° West 246 283 20,000 60 Climbing Boston Center
10:02PM 43.3108 -71.2275 250° West 298 343 20,000  Level Boston Center
10:03PM 43.2831 -71.3506 253° West 331 381 20,000  Level Boston Center
10:04PM 43.2486 -71.4708 249° West 337 388 20,000  Level Boston Center
10:05PM 43.2183 -71.5853 250° West 337 388 20,000  Level Boston Center
10:06PM 43.2067 -71.7022 262° West 332 382 20,000  Level Boston Center
10:07PM 43.1908 -71.8278 260° West 337 388 20,000  Level Boston Center
10:08PM 43.1747 -71.9533 260° West 337 388 20,000  Level Boston Center
10:09PM 43.1606 -72.0814 261° West 337 388 20,000  Level Boston Center
10:10PM 43.1442 -72.2039 260° West 337 388 20,000  Level Boston Center
10:11PM 43.1319 -72.3378 263° West 332 382 20,000  Level Boston Center
10:12PM 43.1153 -72.4628 260° West 332 382 20,000 -300 Level Boston Center
10:13PM 43.0922 -72.5794 255° West 332 382 19,500 -660 Descending Boston Center
10:14PM 43.0294 -72.6672 226° Southwest 331 381 18,700 -960 Descending Boston Center
10:15PM 42.9669 -72.7664 229° Southwest 347 399 17,700 -1,020 Descending Boston Center
10:16PM 42.9019 -72.8625 227° Southwest 352 405 16,700 -1,320 Descending Boston Center
10:17PM 42.8244 -72.9750 227° Southwest 352 405 14,900 -1,260 Descending Boston Center
10:18PM 42.7592 -73.0706 227° Southwest 344 396 14,000 -480 Descending Boston Center
10:19PM 42.6878 -73.1717 226° Southwest 339 390 14,000  Level Boston Center
10:20PM 42.6308 -73.2528 226° Southwest 339 390 14,000  Level Boston Center
10:21PM 42.5408 -73.3219 210° Southwest 339 390 14,000  Level Boston Center
10:22PM 42.4592 -73.3658 202° Southwest 347 399 14,000  Level Boston Center
10:23PM 42.3608 -73.4150 200° South 352 405 14,000  Level Boston Center
10:24PM 42.2769 -73.4614 202° Southwest 352 405 14,000  Level Boston Center
10:25PM 42.1764 -73.5131 201° Southwest 357 411 14,000 -300 Level Boston Center
10:26PM 42.0886 -73.5564 200° South 351 404 13,500 -900 Descending Boston Center
10:27PM 42.0028 -73.5994 200° South 342 394 12,300 -1,200 Descending Boston Center
10:28PM 41.9231 -73.6400 201° Southwest 337 388 11,200 -1,200 Descending Boston Center
10:29PM 41.8350 -73.6828 200° South 317 365 9,900 -1,260 Descending Boston Center
10:30PM 41.7681 -73.7175 201° Southwest 296 341 8,700 -1,260 Descending Boston Center
10:31PM 41.6925 -73.7550 200° South 281 323 7,400 -1,080 Descending Boston Center
10:32PM 41.6000 -73.8000 200° South 263 303 6,100 -540 Descending New York TRACON
10:34PM 41.5167 -73.8333 197° South 263 303 6,100  Level New York TRACON
10:35PM 41.4500 -73.8667 201° Southwest 263 303 6,100 -420 Level New York TRACON
10:36PM 41.3667 -73.8833 189° South 260 299 5,300 -1,440 Descending New York TRACON
10:37PM 41.3000 -73.8833 180° South 254 292 3,300 -1,200 Descending New York TRACON
10:37PM 41.2500 -73.8500 153° Southeast 229 264 3,100 -120 Descending New York TRACON
10:39PM 41.2000 -73.8000 143° Southeast 202 232 3,100 -480 Level New York TRACON
10:40PM 41.1500 -73.7667 153° Southeast 163 188 2,100 -840 Descending New York TRACON
10:41PM 41.1167 -73.7500 159° South 126 145 1,500 -600 Descending New York TRACON
10:42PM 41.1000 -73.7333 143° Southeast 121 139 900 -600 Descending New York TRACON